Other Surface Observations
Issued by NWS Great Falls, MT

Home | Current Version | Previous Version | Text Only | Print | Product List | Glossary On
Versions: 1 2 3 4 5 6 7 8 9 10 11 12 13 14 15 16 17 18 19 20 21 22 23 24 25 26 27 28 29 30 31 32 33 34 35 36 37 38 39 40 41 42 43 44 45 46 47 48 49 50
000
SXUS55 KTFX 200305
OSOTFX
AREA AWOS OBSERVATIONS
NATIONAL WEATHER SERVICE GREAT FALLS MT
0805 PM MST FRI DEC 19 2014

METAR KPWD 200300Z AUTO 00000KT 6SM M08/M08 A2988 RMK PLENTYWOOD
METAR KPO1 200300Z AUTO 06003KT 6SM M06/M07 A2988 RMK POPLAR
METAR K1S3 200300Z AUTO 00000KT 10SM 00/M05 A2987 RMK FORSYTH
METAR KS71 200300Z AUTO 10004KT 9SM M02/M03 A2979 RMK CHINOOK
METAR K38S 200300Z AUTO 36003G17KT 10SM 02/M01 A2996 RMK DEER LODGE
METAR K3U3 200300Z AUTO 19006KT 10SM 02/M03 A2991 RMK ANACONDA
METAR K6S5 200300Z AUTO 16002KT 10SM 02/00 A2997 RMK HAMILTON
METAR KS59 200300Z AUTO 00000KT 1/4SM A2994 RMK LIBBY
METAR K88M 200300Z AUTO 14008KT 10SM 04/00 A2989 RMK EUREKA



USA.gov is the U.S. government's official web portal to all federal, state and local government web resources and services.